Terminal Aerodrome Forecast
Issued by NWS Albany, NY

Home | Current Version | Previous Version | Text Only | Print | Product List | Glossary On
Versions: 1 2 3 4 5 6 7 8 9 10 11 12 13 14
000
FTUS41 KALY 040523
TAFPOU
TAF
KPOU 040523Z 0406/0506 00000KT P6SM FEW040
     FM040800 02003KT P6SM SCT040
      TEMPO 0408/0412 3SM BR
     FM041300 05006KT P6SM BKN040
     FM050200 00000KT P6SM FEW040=

USA.gov is the U.S. government's official web portal to all federal, state and local government web resources and services.